sensor_id;sensor_type;location;lat;lon;timestamp;temperature;humidity
22430;DHT22;11382;48.086;11.632;2022-10-19T00:01:00;14.50;99.90
22430;DHT22;11382;48.086;11.632;2022-10-19T00:03:28;14.50;99.90
22430;DHT22;11382;48.086;11.632;2022-10-19T00:05:56;14.50;99.90
22430;DHT22;11382;48.086;11.632;2022-10-19T00:08:25;14.50;99.90
22430;DHT22;11382;48.086;11.632;2022-10-19T00:10:53;14.50;99.90
22430;DHT22;11382;48.086;11.632;2022-10-19T00:13:21;14.40;99.90
22430;DHT22;11382;48.086;11.632;2022-10-19T00:15:49;14.40;99.90
22430;DHT22;11382;48.086;11.632;2022-10-19T00:18:17;14.40;99.90
22430;DHT22;11382;48.086;11.632;2022-10-19T00:20:46;14.40;99.90
22430;DHT22;11382;48.086;11.632;2022-10-19T00:23:14;14.40;99.90
22430;DHT22;11382;48.086;11.632;2022-10-19T00:25:53;14.30;99.90
22430;DHT22;11382;48.086;11.632;2022-10-19T00:28:21;14.20;99.90
22430;DHT22;11382;48.086;11.632;2022-10-19T00:30:51;14.20;99.90
22430;DHT22;11382;48.086;11.632;2022-10-19T00:33:19;14.30;99.90
22430;DHT22;11382;48.086;11.632;2022-10-19T00:35:49;14.40;99.90
22430;DHT22;11382;48.086;11.632;2022-10-19T00:38:17;14.40;99.90
22430;DHT22;11382;48.086;11.632;2022-10-19T00:40:47;14.40;99.90
22430;DHT22;11382;48.086;11.632;2022-10-19T00:43:17;14.50;99.90
22430;DHT22;11382;48.086;11.632;2022-10-19T00:45:46;14.50;99.90
22430;DHT22;11382;48.086;11.632;2022-10-19T00:48:18;14.50;99.90
22430;DHT22;11382;48.086;11.632;2022-10-19T00:50:49;14.50;99.90
22430;DHT22;11382;48.086;11.632;2022-10-19T00:53:18;14.40;99.90
22430;DHT22;11382;48.086;11.632;2022-10-19T00:55:47;14.40;99.90
22430;DHT22;11382;48.086;11.632;2022-10-19T00:58:16;14.50;99.90
22430;DHT22;11382;48.086;11.632;2022-10-19T01:00:44;14.40;99.90
22430;DHT22;11382;48.086;11.632;2022-10-19T01:03:13;14.40;99.90
22430;DHT22;11382;48.086;11.632;2022-10-19T01:05:41;14.50;99.90
22430;DHT22;11382;48.086;11.632;2022-10-19T01:08:10;14.40;99.90
22430;DHT22;11382;48.086;11.632;2022-10-19T01:10:44;14.40;99.90
22430;DHT22;11382;48.086;11.632;2022-10-19T01:13:23;14.40;99.90
22430;DHT22;11382;48.086;11.632;2022-10-19T01:15:58;14.40;99.90
22430;DHT22;11382;48.086;11.632;2022-10-19T01:18:36;14.30;99.90
22430;DHT22;11382;48.086;11.632;2022-10-19T01:21:23;14.30;99.90
22430;DHT22;11382;48.086;11.632;2022-10-19T01:24:36;14.40;99.90
22430;DHT22;11382;48.086;11.632;2022-10-19T01:27:32;14.30;99.90
22430;DHT22;11382;48.086;11.632;2022-10-19T01:30:12;14.30;99.90
22430;DHT22;11382;48.086;11.632;2022-10-19T01:33:01;14.30;99.90
22430;DHT22;11382;48.086;11.632;2022-10-19T01:35:36;14.30;99.90
22430;DHT22;11382;48.086;11.632;2022-10-19T01:38:14;14.30;99.90
22430;DHT22;11382;48.086;11.632;2022-10-19T01:40:50;14.20;99.90
22430;DHT22;11382;48.086;11.632;2022-10-19T01:43:30;14.20;99.90
22430;DHT22;11382;48.086;11.632;2022-10-19T01:46:06;14.20;99.90
22430;DHT22;11382;48.086;11.632;2022-10-19T01:48:37;14.20;99.90
22430;DHT22;11382;48.086;11.632;2022-10-19T01:51:11;14.10;99.90
22430;DHT22;11382;48.086;11.632;2022-10-19T01:53:48;14.00;99.90
22430;DHT22;11382;48.086;11.632;2022-10-19T01:56:20;14.00;99.90
22430;DHT22;11382;48.086;11.632;2022-10-19T01:58:50;13.90;99.90
22430;DHT22;11382;48.086;11.632;2022-10-19T02:01:25;13.90;99.90
22430;DHT22;11382;48.086;11.632;2022-10-19T02:03:55;13.80;99.90
22430;DHT22;11382;48.086;11.632;2022-10-19T02:06:24;13.80;99.90
22430;DHT22;11382;48.086;11.632;2022-10-19T02:08:53;13.80;99.90
22430;DHT22;11382;48.086;11.632;2022-10-19T02:11:21;13.80;99.90
22430;DHT22;11382;48.086;11.632;2022-10-19T02:13:53;13.80;99.90
22430;DHT22;11382;48.086;11.632;2022-10-19T02:16:28;13.90;99.90
22430;DHT22;11382;48.086;11.632;2022-10-19T02:18:58;13.90;99.90
22430;DHT22;11382;48.086;11.632;2022-10-19T02:21:27;14.00;99.90
22430;DHT22;11382;48.086;11.632;2022-10-19T02:23:55;14.10;99.90
22430;DHT22;11382;48.086;11.632;2022-10-19T02:26:23;14.00;99.90
22430;DHT22;11382;48.086;11.632;2022-10-19T02:28:52;14.10;99.90
22430;DHT22;11382;48.086;11.632;2022-10-19T02:31:21;14.10;99.90
22430;DHT22;11382;48.086;11.632;2022-10-19T02:33:51;14.20;99.90
22430;DHT22;11382;48.086;11.632;2022-10-19T02:36:21;14.30;99.90
22430;DHT22;11382;48.086;11.632;2022-10-19T02:38:49;14.30;99.90
22430;DHT22;11382;48.086;11.632;2022-10-19T02:41:20;14.30;99.90
22430;DHT22;11382;48.086;11.632;2022-10-19T02:44:08;14.40;99.90
22430;DHT22;11382;48.086;11.632;2022-10-19T02:46:43;14.40;99.90
22430;DHT22;11382;48.086;11.632;2022-10-19T02:49:13;14.40;99.90
22430;DHT22;11382;48.086;11.632;2022-10-19T02:51:56;14.40;99.90
22430;DHT22;11382;48.086;11.632;2022-10-19T02:54:25;14.30;99.90
22430;DHT22;11382;48.086;11.632;2022-10-19T02:56:53;14.30;99.90
22430;DHT22;11382;48.086;11.632;2022-10-19T02:59:21;14.30;99.90
22430;DHT22;11382;48.086;11.632;2022-10-19T03:01:50;14.30;99.90
22430;DHT22;11382;48.086;11.632;2022-10-19T03:04:19;14.40;99.90
22430;DHT22;11382;48.086;11.632;2022-10-19T03:06:47;14.40;99.90
22430;DHT22;11382;48.086;11.632;2022-10-19T03:09:15;14.50;99.90
22430;DHT22;11382;48.086;11.632;2022-10-19T03:11:43;14.50;99.90
22430;DHT22;11382;48.086;11.632;2022-10-19T03:14:11;14.40;99.90
22430;DHT22;11382;48.086;11.632;2022-10-19T03:16:41;14.40;99.90
22430;DHT22;11382;48.086;11.632;2022-10-19T03:19:09;14.40;99.90
22430;DHT22;11382;48.086;11.632;2022-10-19T03:21:38;14.40;99.90
22430;DHT22;11382;48.086;11.632;2022-10-19T03:24:06;14.40;99.90
22430;DHT22;11382;48.086;11.632;2022-10-19T03:26:34;14.40;99.90
22430;DHT22;11382;48.086;11.632;2022-10-19T03:29:03;14.50;99.90
22430;DHT22;11382;48.086;11.632;2022-10-19T03:31:31;14.50;99.90
22430;DHT22;11382;48.086;11.632;2022-10-19T03:33:59;14.40;99.90
22430;DHT22;11382;48.086;11.632;2022-10-19T03:36:29;14.50;99.90
22430;DHT22;11382;48.086;11.632;2022-10-19T03:39:01;14.50;99.90
22430;DHT22;11382;48.086;11.632;2022-10-19T03:41:32;14.50;99.90
22430;DHT22;11382;48.086;11.632;2022-10-19T03:44:01;14.50;99.90
22430;DHT22;11382;48.086;11.632;2022-10-19T03:46:29;14.50;99.90
22430;DHT22;11382;48.086;11.632;2022-10-19T03:48:57;14.40;99.90
22430;DHT22;11382;48.086;11.632;2022-10-19T03:51:27;14.20;99.90
22430;DHT22;11382;48.086;11.632;2022-10-19T03:53:57;14.10;99.90
22430;DHT22;11382;48.086;11.632;2022-10-19T03:56:28;14.10;99.90
22430;DHT22;11382;48.086;11.632;2022-10-19T03:58:58;14.00;99.90
22430;DHT22;11382;48.086;11.632;2022-10-19T04:01:28;13.90;99.90
22430;DHT22;11382;48.086;11.632;2022-10-19T04:03:57;13.70;99.90
22430;DHT22;11382;48.086;11.632;2022-10-19T04:06:28;13.60;99.90
22430;DHT22;11382;48.086;11.632;2022-10-19T04:08:57;13.60;99.90
22430;DHT22;11382;48.086;11.632;2022-10-19T04:11:28;13.60;99.90
22430;DHT22;11382;48.086;11.632;2022-10-19T04:13:57;13.70;99.90
22430;DHT22;11382;48.086;11.632;2022-10-19T04:16:27;13.70;99.90
22430;DHT22;11382;48.086;11.632;2022-10-19T04:18:56;13.70;99.90
22430;DHT22;11382;48.086;11.632;2022-10-19T04:21:26;13.70;99.90
22430;DHT22;11382;48.086;11.632;2022-10-19T04:23:57;13.80;99.90
22430;DHT22;11382;48.086;11.632;2022-10-19T04:26:27;13.90;99.90
22430;DHT22;11382;48.086;11.632;2022-10-19T04:28:56;13.90;99.90
22430;DHT22;11382;48.086;11.632;2022-10-19T04:31:24;13.80;99.90
22430;DHT22;11382;48.086;11.632;2022-10-19T04:33:53;13.90;99.90
22430;DHT22;11382;48.086;11.632;2022-10-19T04:36:21;13.80;99.90
22430;DHT22;11382;48.086;11.632;2022-10-19T04:38:50;13.50;99.90
22430;DHT22;11382;48.086;11.632;2022-10-19T04:41:19;13.60;99.90
22430;DHT22;11382;48.086;11.632;2022-10-19T04:43:54;13.60;99.90
22430;DHT22;11382;48.086;11.632;2022-10-19T04:46:23;13.70;99.90
22430;DHT22;11382;48.086;11.632;2022-10-19T04:48:51;13.80;99.90
22430;DHT22;11382;48.086;11.632;2022-10-19T04:51:20;13.80;99.90
22430;DHT22;11382;48.086;11.632;2022-10-19T04:53:48;13.90;99.90
22430;DHT22;11382;48.086;11.632;2022-10-19T04:56:21;13.90;99.90
22430;DHT22;11382;48.086;11.632;2022-10-19T04:58:53;13.80;99.90
22430;DHT22;11382;48.086;11.632;2022-10-19T05:01:22;13.80;99.90
22430;DHT22;11382;48.086;11.632;2022-10-19T05:03:52;13.80;99.90
22430;DHT22;11382;48.086;11.632;2022-10-19T05:06:26;13.80;99.90
22430;DHT22;11382;48.086;11.632;2022-10-19T05:08:55;13.80;99.90
22430;DHT22;11382;48.086;11.632;2022-10-19T05:11:23;13.90;99.90
22430;DHT22;11382;48.086;11.632;2022-10-19T05:13:52;14.00;99.90
22430;DHT22;11382;48.086;11.632;2022-10-19T05:16:22;14.00;99.90
22430;DHT22;11382;48.086;11.632;2022-10-19T05:18:51;14.10;99.90
22430;DHT22;11382;48.086;11.632;2022-10-19T05:21:21;14.10;99.90
22430;DHT22;11382;48.086;11.632;2022-10-19T05:23:51;14.10;99.90
22430;DHT22;11382;48.086;11.632;2022-10-19T05:26:21;14.20;99.90
22430;DHT22;11382;48.086;11.632;2022-10-19T05:28:53;14.20;99.90
22430;DHT22;11382;48.086;11.632;2022-10-19T05:31:24;14.10;99.90
22430;DHT22;11382;48.086;11.632;2022-10-19T05:33:53;14.10;99.90
22430;DHT22;11382;48.086;11.632;2022-10-19T05:36:23;14.30;99.90
22430;DHT22;11382;48.086;11.632;2022-10-19T05:38:53;14.40;99.90
22430;DHT22;11382;48.086;11.632;2022-10-19T05:41:23;14.40;99.90
22430;DHT22;11382;48.086;11.632;2022-10-19T05:43:54;14.30;99.90
22430;DHT22;11382;48.086;11.632;2022-10-19T05:46:23;14.40;99.90
22430;DHT22;11382;48.086;11.632;2022-10-19T05:48:51;14.40;99.90
22430;DHT22;11382;48.086;11.632;2022-10-19T05:51:21;14.50;99.90
22430;DHT22;11382;48.086;11.632;2022-10-19T05:53:52;14.50;99.90
22430;DHT22;11382;48.086;11.632;2022-10-19T05:56:21;14.50;99.90
22430;DHT22;11382;48.086;11.632;2022-10-19T05:58:50;14.50;99.90
22430;DHT22;11382;48.086;11.632;2022-10-19T06:01:21;14.60;99.90
22430;DHT22;11382;48.086;11.632;2022-10-19T06:03:51;14.60;99.90
22430;DHT22;11382;48.086;11.632;2022-10-19T06:06:19;14.60;99.90
22430;DHT22;11382;48.086;11.632;2022-10-19T06:08:47;14.60;99.90
22430;DHT22;11382;48.086;11.632;2022-10-19T06:11:17;14.60;99.90
22430;DHT22;11382;48.086;11.632;2022-10-19T06:13:47;14.50;99.90
22430;DHT22;11382;48.086;11.632;2022-10-19T06:16:17;14.50;99.90
22430;DHT22;11382;48.086;11.632;2022-10-19T06:18:50;14.60;99.90
22430;DHT22;11382;48.086;11.632;2022-10-19T06:21:21;14.70;99.90
22430;DHT22;11382;48.086;11.632;2022-10-19T06:23:50;14.50;99.90
22430;DHT22;11382;48.086;11.632;2022-10-19T06:26:19;14.60;99.90
22430;DHT22;11382;48.086;11.632;2022-10-19T06:28:48;14.80;99.90
22430;DHT22;11382;48.086;11.632;2022-10-19T06:31:16;14.90;99.90
22430;DHT22;11382;48.086;11.632;2022-10-19T06:33:45;14.90;99.90
22430;DHT22;11382;48.086;11.632;2022-10-19T06:36:18;15.00;99.90
22430;DHT22;11382;48.086;11.632;2022-10-19T06:38:47;15.00;99.90
22430;DHT22;11382;48.086;11.632;2022-10-19T06:41:16;15.10;99.90
22430;DHT22;11382;48.086;11.632;2022-10-19T06:43:48;15.20;99.90
22430;DHT22;11382;48.086;11.632;2022-10-19T06:46:17;15.30;99.90
22430;DHT22;11382;48.086;11.632;2022-10-19T06:48:50;15.30;99.90
22430;DHT22;11382;48.086;11.632;2022-10-19T06:51:20;15.20;99.90
22430;DHT22;11382;48.086;11.632;2022-10-19T06:53:48;15.20;99.90
22430;DHT22;11382;48.086;11.632;2022-10-19T06:56:21;15.10;99.90
22430;DHT22;11382;48.086;11.632;2022-10-19T06:58:50;15.30;99.90
22430;DHT22;11382;48.086;11.632;2022-10-19T07:01:19;15.50;99.90
22430;DHT22;11382;48.086;11.632;2022-10-19T07:03:47;15.70;99.90
22430;DHT22;11382;48.086;11.632;2022-10-19T07:06:17;15.80;99.90
22430;DHT22;11382;48.086;11.632;2022-10-19T07:08:46;16.00;99.90
22430;DHT22;11382;48.086;11.632;2022-10-19T07:11:16;16.00;99.90
22430;DHT22;11382;48.086;11.632;2022-10-19T07:13:44;16.00;99.90
22430;DHT22;11382;48.086;11.632;2022-10-19T07:16:14;16.20;99.90
22430;DHT22;11382;48.086;11.632;2022-10-19T07:18:48;16.10;99.90
22430;DHT22;11382;48.086;11.632;2022-10-19T07:21:16;15.90;99.90
22430;DHT22;11382;48.086;11.632;2022-10-19T07:23:46;15.60;99.90
22430;DHT22;11382;48.086;11.632;2022-10-19T07:26:16;15.50;99.90
22430;DHT22;11382;48.086;11.632;2022-10-19T07:28:47;15.40;99.90
22430;DHT22;11382;48.086;11.632;2022-10-19T07:31:18;15.30;99.90
22430;DHT22;11382;48.086;11.632;2022-10-19T07:33:50;15.30;99.90
22430;DHT22;11382;48.086;11.632;2022-10-19T07:36:19;15.30;99.90
22430;DHT22;11382;48.086;11.632;2022-10-19T07:38:50;15.40;99.90
22430;DHT22;11382;48.086;11.632;2022-10-19T07:41:20;15.60;99.90
22430;DHT22;11382;48.086;11.632;2022-10-19T07:43:49;15.80;99.90
22430;DHT22;11382;48.086;11.632;2022-10-19T07:46:19;16.00;99.90
22430;DHT22;11382;48.086;11.632;2022-10-19T07:48:47;16.20;99.90
22430;DHT22;11382;48.086;11.632;2022-10-19T07:51:17;16.20;99.90
22430;DHT22;11382;48.086;11.632;2022-10-19T07:53:46;16.20;99.90
22430;DHT22;11382;48.086;11.632;2022-10-19T07:56:17;16.30;99.90
22430;DHT22;11382;48.086;11.632;2022-10-19T07:58:45;16.40;99.90
22430;DHT22;11382;48.086;11.632;2022-10-19T08:01:15;16.40;99.90
22430;DHT22;11382;48.086;11.632;2022-10-19T08:03:45;16.50;99.90
22430;DHT22;11382;48.086;11.632;2022-10-19T08:06:33;16.50;99.90
22430;DHT22;11382;48.086;11.632;2022-10-19T08:09:02;16.40;99.90
22430;DHT22;11382;48.086;11.632;2022-10-19T08:11:33;16.40;99.90
22430;DHT22;11382;48.086;11.632;2022-10-19T08:14:02;16.40;99.90
22430;DHT22;11382;48.086;11.632;2022-10-19T08:16:32;16.50;99.90
22430;DHT22;11382;48.086;11.632;2022-10-19T08:19:05;16.50;99.90
22430;DHT22;11382;48.086;11.632;2022-10-19T08:21:37;16.40;99.90
22430;DHT22;11382;48.086;11.632;2022-10-19T08:24:06;16.40;99.90
22430;DHT22;11382;48.086;11.632;2022-10-19T08:26:36;16.30;99.90
22430;DHT22;11382;48.086;11.632;2022-10-19T08:29:07;16.70;99.90
22430;DHT22;11382;48.086;11.632;2022-10-19T08:31:36;16.70;99.90
22430;DHT22;11382;48.086;11.632;2022-10-19T08:34:04;16.80;99.90
22430;DHT22;11382;48.086;11.632;2022-10-19T08:36:32;17.10;99.90
22430;DHT22;11382;48.086;11.632;2022-10-19T08:39:03;17.40;99.90
22430;DHT22;11382;48.086;11.632;2022-10-19T08:41:36;17.40;99.90
22430;DHT22;11382;48.086;11.632;2022-10-19T08:44:26;17.90;99.90
22430;DHT22;11382;48.086;11.632;2022-10-19T08:47:02;18.00;99.90
22430;DHT22;11382;48.086;11.632;2022-10-19T08:49:34;18.00;99.90
22430;DHT22;11382;48.086;11.632;2022-10-19T08:52:05;18.10;99.90
22430;DHT22;11382;48.086;11.632;2022-10-19T08:54:39;18.00;99.90
22430;DHT22;11382;48.086;11.632;2022-10-19T08:57:17;17.80;99.90
22430;DHT22;11382;48.086;11.632;2022-10-19T08:59:53;17.40;99.90
22430;DHT22;11382;48.086;11.632;2022-10-19T09:02:34;17.40;99.90
22430;DHT22;11382;48.086;11.632;2022-10-19T09:05:11;17.50;99.90
22430;DHT22;11382;48.086;11.632;2022-10-19T09:07:42;17.20;99.90
22430;DHT22;11382;48.086;11.632;2022-10-19T09:10:19;16.80;99.90
22430;DHT22;11382;48.086;11.632;2022-10-19T09:12:52;17.20;99.90
22430;DHT22;11382;48.086;11.632;2022-10-19T09:15:31;17.50;99.90
22430;DHT22;11382;48.086;11.632;2022-10-19T09:18:02;17.50;99.90
22430;DHT22;11382;48.086;11.632;2022-10-19T09:20:35;17.50;99.90
22430;DHT22;11382;48.086;11.632;2022-10-19T09:23:11;17.40;99.90
22430;DHT22;11382;48.086;11.632;2022-10-19T09:25:42;17.40;99.90
22430;DHT22;11382;48.086;11.632;2022-10-19T09:28:22;17.50;99.90
22430;DHT22;11382;48.086;11.632;2022-10-19T09:31:07;17.60;99.90
22430;DHT22;11382;48.086;11.632;2022-10-19T09:33:38;17.30;99.90
22430;DHT22;11382;48.086;11.632;2022-10-19T09:36:08;17.30;99.90
22430;DHT22;11382;48.086;11.632;2022-10-19T09:38:53;17.20;99.90
22430;DHT22;11382;48.086;11.632;2022-10-19T09:41:21;17.40;99.90
22430;DHT22;11382;48.086;11.632;2022-10-19T09:43:52;17.60;99.90
22430;DHT22;11382;48.086;11.632;2022-10-19T09:46:31;17.30;99.90
22430;DHT22;11382;48.086;11.632;2022-10-19T09:49:04;17.10;99.90
22430;DHT22;11382;48.086;11.632;2022-10-19T09:51:45;17.10;99.90
22430;DHT22;11382;48.086;11.632;2022-10-19T09:54:23;17.20;99.90
22430;DHT22;11382;48.086;11.632;2022-10-19T09:56:53;16.90;99.90
22430;DHT22;11382;48.086;11.632;2022-10-19T09:59:23;16.80;99.90
22430;DHT22;11382;48.086;11.632;2022-10-19T10:02:14;16.80;99.90
22430;DHT22;11382;48.086;11.632;2022-10-19T10:04:45;16.70;99.90
22430;DHT22;11382;48.086;11.632;2022-10-19T10:07:16;16.70;99.90
22430;DHT22;11382;48.086;11.632;2022-10-19T10:09:44;16.50;99.90
22430;DHT22;11382;48.086;11.632;2022-10-19T10:12:14;16.30;99.90
22430;DHT22;11382;48.086;11.632;2022-10-19T10:14:43;16.40;99.90
22430;DHT22;11382;48.086;11.632;2022-10-19T10:17:14;16.40;99.90
22430;DHT22;11382;48.086;11.632;2022-10-19T10:19:51;16.20;99.90
22430;DHT22;11382;48.086;11.632;2022-10-19T10:22:32;16.40;99.90
22430;DHT22;11382;48.086;11.632;2022-10-19T10:25:15;16.40;99.90
22430;DHT22;11382;48.086;11.632;2022-10-19T10:27:54;16.60;99.90
22430;DHT22;11382;48.086;11.632;2022-10-19T10:30:22;16.70;99.90
22430;DHT22;11382;48.086;11.632;2022-10-19T10:32:53;16.70;99.90
22430;DHT22;11382;48.086;11.632;2022-10-19T10:35:27;16.60;99.90
22430;DHT22;11382;48.086;11.632;2022-10-19T10:38:05;16.40;99.90
22430;DHT22;11382;48.086;11.632;2022-10-19T10:40:34;16.60;99.90
22430;DHT22;11382;48.086;11.632;2022-10-19T10:43:06;16.50;99.90
22430;DHT22;11382;48.086;11.632;2022-10-19T10:45:38;16.60;99.90
22430;DHT22;11382;48.086;11.632;2022-10-19T10:48:22;16.40;99.90
22430;DHT22;11382;48.086;11.632;2022-10-19T10:50:54;16.50;99.90
22430;DHT22;11382;48.086;11.632;2022-10-19T10:53:31;16.50;99.90
22430;DHT22;11382;48.086;11.632;2022-10-19T10:56:00;16.60;99.90
22430;DHT22;11382;48.086;11.632;2022-10-19T10:58:35;16.60;99.90
22430;DHT22;11382;48.086;11.632;2022-10-19T11:01:14;16.80;99.90
22430;DHT22;11382;48.086;11.632;2022-10-19T11:03:50;17.00;99.90
22430;DHT22;11382;48.086;11.632;2022-10-19T11:06:22;16.90;99.90
22430;DHT22;11382;48.086;11.632;2022-10-19T11:08:57;16.90;99.90
22430;DHT22;11382;48.086;11.632;2022-10-19T11:11:29;17.00;99.90
22430;DHT22;11382;48.086;11.632;2022-10-19T11:14:08;17.10;99.90
22430;DHT22;11382;48.086;11.632;2022-10-19T11:16:40;17.00;99.90
22430;DHT22;11382;48.086;11.632;2022-10-19T11:19:15;17.10;99.90
22430;DHT22;11382;48.086;11.632;2022-10-19T11:21:53;17.30;99.90
22430;DHT22;11382;48.086;11.632;2022-10-19T11:24:33;17.30;99.90
22430;DHT22;11382;48.086;11.632;2022-10-19T11:27:15;17.30;99.90
22430;DHT22;11382;48.086;11.632;2022-10-19T11:29:54;17.40;99.90
22430;DHT22;11382;48.086;11.632;2022-10-19T11:32:31;17.40;99.90
22430;DHT22;11382;48.086;11.632;2022-10-19T11:35:25;17.70;99.90
22430;DHT22;11382;48.086;11.632;2022-10-19T11:38:02;17.80;99.90
22430;DHT22;11382;48.086;11.632;2022-10-19T11:41:04;18.10;99.90
22430;DHT22;11382;48.086;11.632;2022-10-19T11:43:58;18.50;99.90
22430;DHT22;11382;48.086;11.632;2022-10-19T11:46:37;18.50;99.90
22430;DHT22;11382;48.086;11.632;2022-10-19T11:49:23;18.30;99.90
22430;DHT22;11382;48.086;11.632;2022-10-19T11:52:00;18.20;99.90
22430;DHT22;11382;48.086;11.632;2022-10-19T11:54:37;18.20;99.90
22430;DHT22;11382;48.086;11.632;2022-10-19T11:57:12;18.00;99.90
22430;DHT22;11382;48.086;11.632;2022-10-19T12:00:03;18.00;99.90
22430;DHT22;11382;48.086;11.632;2022-10-19T12:05:58;18.10;99.90
22430;DHT22;11382;48.086;11.632;2022-10-19T12:08:38;18.60;99.90
22430;DHT22;11382;48.086;11.632;2022-10-19T12:11:22;18.60;99.90
22430;DHT22;11382;48.086;11.632;2022-10-19T12:13:56;18.20;99.90
22430;DHT22;11382;48.086;11.632;2022-10-19T12:16:32;18.30;99.90
22430;DHT22;11382;48.086;11.632;2022-10-19T12:19:03;17.90;99.90
22430;DHT22;11382;48.086;11.632;2022-10-19T12:21:35;17.80;99.90
22430;DHT22;11382;48.086;11.632;2022-10-19T12:24:14;17.40;99.90
22430;DHT22;11382;48.086;11.632;2022-10-19T12:26:44;17.40;99.90
22430;DHT22;11382;48.086;11.632;2022-10-19T12:29:15;17.60;99.90
22430;DHT22;11382;48.086;11.632;2022-10-19T12:31:45;17.50;99.90
22430;DHT22;11382;48.086;11.632;2022-10-19T12:34:22;17.60;99.90
22430;DHT22;11382;48.086;11.632;2022-10-19T12:36:55;17.40;99.90
22430;DHT22;11382;48.086;11.632;2022-10-19T12:39:32;17.30;99.90
22430;DHT22;11382;48.086;11.632;2022-10-19T12:42:07;17.30;99.90
22430;DHT22;11382;48.086;11.632;2022-10-19T12:45:05;17.30;99.90
22430;DHT22;11382;48.086;11.632;2022-10-19T12:47:35;17.10;99.90
22430;DHT22;11382;48.086;11.632;2022-10-19T12:50:04;17.20;99.90
22430;DHT22;11382;48.086;11.632;2022-10-19T12:52:41;17.30;99.90
22430;DHT22;11382;48.086;11.632;2022-10-19T12:55:25;17.30;99.90
22430;DHT22;11382;48.086;11.632;2022-10-19T12:57:58;17.50;99.90
22430;DHT22;11382;48.086;11.632;2022-10-19T13:00:29;17.30;99.90
22430;DHT22;11382;48.086;11.632;2022-10-19T13:03:01;17.70;99.90
22430;DHT22;11382;48.086;11.632;2022-10-19T13:05:31;17.80;99.90
22430;DHT22;11382;48.086;11.632;2022-10-19T13:08:02;17.80;99.90
22430;DHT22;11382;48.086;11.632;2022-10-19T13:10:37;17.70;99.90
22430;DHT22;11382;48.086;11.632;2022-10-19T13:13:05;17.50;99.90
22430;DHT22;11382;48.086;11.632;2022-10-19T13:15:53;17.50;99.90
22430;DHT22;11382;48.086;11.632;2022-10-19T13:25:19;18.30;99.90
22430;DHT22;11382;48.086;11.632;2022-10-19T13:27:52;18.30;99.90
22430;DHT22;11382;48.086;11.632;2022-10-19T13:30:58;18.10;99.90
22430;DHT22;11382;48.086;11.632;2022-10-19T13:33:49;18.00;99.90
22430;DHT22;11382;48.086;11.632;2022-10-19T13:36:19;17.90;99.90
22430;DHT22;11382;48.086;11.632;2022-10-19T13:41:52;17.60;99.90
22430;DHT22;11382;48.086;11.632;2022-10-19T13:44:28;17.60;99.90
22430;DHT22;11382;48.086;11.632;2022-10-19T13:50:24;17.80;99.90
22430;DHT22;11382;48.086;11.632;2022-10-19T13:53:06;18.00;99.90
22430;DHT22;11382;48.086;11.632;2022-10-19T13:55:54;17.90;99.90
22430;DHT22;11382;48.086;11.632;2022-10-19T14:02:23;18.00;99.90
22430;DHT22;11382;48.086;11.632;2022-10-19T14:05:10;17.60;99.90
22430;DHT22;11382;48.086;11.632;2022-10-19T14:07:48;17.60;99.90
22430;DHT22;11382;48.086;11.632;2022-10-19T14:10:25;17.60;99.90
22430;DHT22;11382;48.086;11.632;2022-10-19T14:13:04;17.70;99.90
22430;DHT22;11382;48.086;11.632;2022-10-19T14:15:34;17.80;99.90
22430;DHT22;11382;48.086;11.632;2022-10-19T14:18:21;17.60;99.90
22430;DHT22;11382;48.086;11.632;2022-10-19T14:20:56;17.90;99.90
22430;DHT22;11382;48.086;11.632;2022-10-19T14:23:26;17.90;99.90
22430;DHT22;11382;48.086;11.632;2022-10-19T14:25:57;17.90;99.90
22430;DHT22;11382;48.086;11.632;2022-10-19T14:28:26;17.60;99.90
22430;DHT22;11382;48.086;11.632;2022-10-19T14:30:56;17.80;99.90
22430;DHT22;11382;48.086;11.632;2022-10-19T14:33:27;17.80;99.90
22430;DHT22;11382;48.086;11.632;2022-10-19T14:35:59;17.50;99.90
22430;DHT22;11382;48.086;11.632;2022-10-19T14:38:32;17.40;99.90
22430;DHT22;11382;48.086;11.632;2022-10-19T14:41:03;17.40;99.90
22430;DHT22;11382;48.086;11.632;2022-10-19T14:43:33;17.20;99.90
22430;DHT22;11382;48.086;11.632;2022-10-19T14:46:10;17.10;99.90
22430;DHT22;11382;48.086;11.632;2022-10-19T14:48:41;17.10;99.90
22430;DHT22;11382;48.086;11.632;2022-10-19T14:51:27;17.10;99.90
22430;DHT22;11382;48.086;11.632;2022-10-19T14:53:58;17.00;99.90
22430;DHT22;11382;48.086;11.632;2022-10-19T14:56:31;17.00;99.90
22430;DHT22;11382;48.086;11.632;2022-10-19T14:59:04;17.00;99.90
22430;DHT22;11382;48.086;11.632;2022-10-19T15:01:34;17.10;99.90
22430;DHT22;11382;48.086;11.632;2022-10-19T15:04:04;17.20;99.90
22430;DHT22;11382;48.086;11.632;2022-10-19T15:06:33;17.20;99.90
22430;DHT22;11382;48.086;11.632;2022-10-19T15:09:04;17.00;99.90
22430;DHT22;11382;48.086;11.632;2022-10-19T15:11:51;16.90;99.90
22430;DHT22;11382;48.086;11.632;2022-10-19T15:14:21;16.80;99.90
22430;DHT22;11382;48.086;11.632;2022-10-19T15:16:55;16.90;99.90
22430;DHT22;11382;48.086;11.632;2022-10-19T15:19:27;16.90;99.90
22430;DHT22;11382;48.086;11.632;2022-10-19T15:22:13;16.70;99.90
22430;DHT22;11382;48.086;11.632;2022-10-19T15:24:58;16.70;99.90
22430;DHT22;11382;48.086;11.632;2022-10-19T15:27:31;16.70;99.90
22430;DHT22;11382;48.086;11.632;2022-10-19T15:30:02;16.70;99.90
22430;DHT22;11382;48.086;11.632;2022-10-19T15:32:33;16.50;99.90
22430;DHT22;11382;48.086;11.632;2022-10-19T15:35:11;16.50;99.90
22430;DHT22;11382;48.086;11.632;2022-10-19T15:37:44;16.50;99.90
22430;DHT22;11382;48.086;11.632;2022-10-19T15:40:19;16.50;99.90
22430;DHT22;11382;48.086;11.632;2022-10-19T15:42:49;16.50;99.90
22430;DHT22;11382;48.086;11.632;2022-10-19T15:45:31;16.30;99.90
22430;DHT22;11382;48.086;11.632;2022-10-19T15:48:24;16.20;99.90
22430;DHT22;11382;48.086;11.632;2022-10-19T15:50:55;16.20;99.90
22430;DHT22;11382;48.086;11.632;2022-10-19T15:53:24;16.10;99.90
22430;DHT22;11382;48.086;11.632;2022-10-19T15:55:52;16.00;99.90
22430;DHT22;11382;48.086;11.632;2022-10-19T15:58:20;16.00;99.90
22430;DHT22;11382;48.086;11.632;2022-10-19T16:00:48;16.00;99.90
22430;DHT22;11382;48.086;11.632;2022-10-19T16:03:16;15.80;99.90
22430;DHT22;11382;48.086;11.632;2022-10-19T16:05:44;15.70;99.90
22430;DHT22;11382;48.086;11.632;2022-10-19T16:08:14;15.60;99.90
22430;DHT22;11382;48.086;11.632;2022-10-19T16:10:42;15.60;99.90